sensor_id;sensor_type;location;lat;lon;timestamp;P1;durP1;ratioP1;P2;durP2;ratioP2
23608;SDS011;11982;50.810;4.442;2023-02-01T00:01:37;70.07;;;32.08;;
23608;SDS011;11982;50.810;4.442;2023-02-01T00:04:03;75.45;;;31.92;;
23608;SDS011;11982;50.810;4.442;2023-02-01T00:06:29;81.70;;;32.92;;
23608;SDS011;11982;50.810;4.442;2023-02-01T00:08:55;79.00;;;32.28;;
23608;SDS011;11982;50.810;4.442;2023-02-01T00:11:21;77.88;;;34.03;;
23608;SDS011;11982;50.810;4.442;2023-02-01T00:13:48;77.53;;;32.40;;
23608;SDS011;11982;50.810;4.442;2023-02-01T00:16:18;84.35;;;31.02;;
23608;SDS011;11982;50.810;4.442;2023-02-01T00:18:47;70.22;;;28.63;;
23608;SDS011;11982;50.810;4.442;2023-02-01T00:21:15;64.43;;;29.80;;
23608;SDS011;11982;50.810;4.442;2023-02-01T00:23:42;71.80;;;29.33;;
23608;SDS011;11982;50.810;4.442;2023-02-01T00:26:18;76.82;;;28.20;;
23608;SDS011;11982;50.810;4.442;2023-02-01T00:28:50;77.07;;;29.38;;
23608;SDS011;11982;50.810;4.442;2023-02-01T00:31:15;73.13;;;28.10;;
23608;SDS011;11982;50.810;4.442;2023-02-01T00:33:41;69.30;;;28.55;;
23608;SDS011;11982;50.810;4.442;2023-02-01T00:36:07;67.78;;;26.90;;
23608;SDS011;11982;50.810;4.442;2023-02-01T00:38:36;67.82;;;26.20;;
23608;SDS011;11982;50.810;4.442;2023-02-01T00:41:02;65.32;;;24.95;;
23608;SDS011;11982;50.810;4.442;2023-02-01T00:43:30;58.53;;;23.42;;
23608;SDS011;11982;50.810;4.442;2023-02-01T00:45:57;57.72;;;24.42;;
23608;SDS011;11982;50.810;4.442;2023-02-01T00:48:23;57.58;;;23.23;;
23608;SDS011;11982;50.810;4.442;2023-02-01T00:50:49;57.75;;;23.23;;
23608;SDS011;11982;50.810;4.442;2023-02-01T00:53:14;56.65;;;21.05;;
23608;SDS011;11982;50.810;4.442;2023-02-01T00:55:40;60.28;;;20.88;;
23608;SDS011;11982;50.810;4.442;2023-02-01T00:58:09;56.88;;;20.38;;
23608;SDS011;11982;50.810;4.442;2023-02-01T01:00:34;51.67;;;17.40;;
23608;SDS011;11982;50.810;4.442;2023-02-01T01:03:00;48.63;;;16.67;;
23608;SDS011;11982;50.810;4.442;2023-02-01T01:05:26;46.85;;;17.15;;
23608;SDS011;11982;50.810;4.442;2023-02-01T01:07:52;48.08;;;16.15;;
23608;SDS011;11982;50.810;4.442;2023-02-01T01:10:19;39.33;;;14.95;;
23608;SDS011;11982;50.810;4.442;2023-02-01T01:12:44;50.08;;;14.70;;
23608;SDS011;11982;50.810;4.442;2023-02-01T01:15:10;43.85;;;14.63;;
23608;SDS011;11982;50.810;4.442;2023-02-01T01:17:36;40.05;;;13.50;;
23608;SDS011;11982;50.810;4.442;2023-02-01T01:20:02;50.88;;;13.93;;
23608;SDS011;11982;50.810;4.442;2023-02-01T01:22:28;46.70;;;13.65;;
23608;SDS011;11982;50.810;4.442;2023-02-01T01:24:54;39.03;;;12.30;;
23608;SDS011;11982;50.810;4.442;2023-02-01T01:27:19;43.97;;;12.10;;
23608;SDS011;11982;50.810;4.442;2023-02-01T01:29:48;37.70;;;11.82;;
23608;SDS011;11982;50.810;4.442;2023-02-01T01:32:15;44.72;;;11.25;;
23608;SDS011;11982;50.810;4.442;2023-02-01T01:34:40;44.33;;;10.00;;
23608;SDS011;11982;50.810;4.442;2023-02-01T01:37:06;34.30;;;9.80;;
23608;SDS011;11982;50.810;4.442;2023-02-01T01:39:32;38.38;;;9.93;;
23608;SDS011;11982;50.810;4.442;2023-02-01T01:41:57;42.20;;;9.20;;
23608;SDS011;11982;50.810;4.442;2023-02-01T01:47:24;38.20;;;8.40;;
23608;SDS011;11982;50.810;4.442;2023-02-01T01:49:54;37.67;;;6.95;;
23608;SDS011;11982;50.810;4.442;2023-02-01T01:52:20;36.92;;;6.88;;
23608;SDS011;11982;50.810;4.442;2023-02-01T01:54:47;30.27;;;6.80;;
23608;SDS011;11982;50.810;4.442;2023-02-01T01:57:20;30.60;;;6.10;;
23608;SDS011;11982;50.810;4.442;2023-02-01T01:59:53;35.10;;;7.15;;
23608;SDS011;11982;50.810;4.442;2023-02-01T02:02:27;34.63;;;6.18;;
23608;SDS011;11982;50.810;4.442;2023-02-01T02:04:52;32.40;;;5.78;;
23608;SDS011;11982;50.810;4.442;2023-02-01T02:07:21;31.42;;;5.90;;
23608;SDS011;11982;50.810;4.442;2023-02-01T02:09:51;39.47;;;6.32;;
23608;SDS011;11982;50.810;4.442;2023-02-01T02:12:17;31.00;;;5.43;;
23608;SDS011;11982;50.810;4.442;2023-02-01T02:14:43;26.02;;;4.90;;
23608;SDS011;11982;50.810;4.442;2023-02-01T02:30:56;40.93;;;6.23;;
23608;SDS011;11982;50.810;4.442;2023-02-01T02:45:19;38.33;;;6.68;;
23608;SDS011;11982;50.810;4.442;2023-02-01T02:48:18;40.97;;;6.65;;
23608;SDS011;11982;50.810;4.442;2023-02-01T02:50:50;25.25;;;5.80;;
23608;SDS011;11982;50.810;4.442;2023-02-01T02:56:32;32.63;;;6.43;;
23608;SDS011;11982;50.810;4.442;2023-02-01T02:59:19;31.70;;;5.50;;
23608;SDS011;11982;50.810;4.442;2023-02-01T03:02:05;29.38;;;5.55;;
23608;SDS011;11982;50.810;4.442;2023-02-01T03:04:54;31.10;;;4.95;;
23608;SDS011;11982;50.810;4.442;2023-02-01T03:10:42;30.75;;;5.45;;
23608;SDS011;11982;50.810;4.442;2023-02-01T03:13:15;34.50;;;5.47;;
23608;SDS011;11982;50.810;4.442;2023-02-01T03:18:20;32.08;;;5.93;;
23608;SDS011;11982;50.810;4.442;2023-02-01T03:20:51;29.65;;;5.63;;
23608;SDS011;11982;50.810;4.442;2023-02-01T03:23:19;31.77;;;5.28;;
23608;SDS011;11982;50.810;4.442;2023-02-01T03:25:49;33.03;;;5.65;;
23608;SDS011;11982;50.810;4.442;2023-02-01T03:28:16;35.20;;;5.70;;
23608;SDS011;11982;50.810;4.442;2023-02-01T03:30:46;31.38;;;5.78;;
23608;SDS011;11982;50.810;4.442;2023-02-01T03:33:15;31.98;;;5.25;;
23608;SDS011;11982;50.810;4.442;2023-02-01T03:38:37;30.35;;;5.32;;
23608;SDS011;11982;50.810;4.442;2023-02-01T03:41:15;29.05;;;5.05;;
23608;SDS011;11982;50.810;4.442;2023-02-01T03:44:00;33.13;;;4.95;;
23608;SDS011;11982;50.810;4.442;2023-02-01T03:46:48;26.00;;;4.18;;
23608;SDS011;11982;50.810;4.442;2023-02-01T03:49:27;25.40;;;3.83;;
23608;SDS011;11982;50.810;4.442;2023-02-01T03:51:56;32.55;;;4.88;;
23608;SDS011;11982;50.810;4.442;2023-02-01T03:54:24;23.02;;;4.28;;
23608;SDS011;11982;50.810;4.442;2023-02-01T03:56:52;41.95;;;6.45;;
23608;SDS011;11982;50.810;4.442;2023-02-01T03:59:21;29.50;;;5.25;;
23608;SDS011;11982;50.810;4.442;2023-02-01T04:01:47;28.45;;;5.05;;
23608;SDS011;11982;50.810;4.442;2023-02-01T04:04:13;39.42;;;5.55;;
23608;SDS011;11982;50.810;4.442;2023-02-01T04:06:48;38.53;;;5.35;;
23608;SDS011;11982;50.810;4.442;2023-02-01T04:09:15;42.03;;;5.82;;
23608;SDS011;11982;50.810;4.442;2023-02-01T04:11:41;37.97;;;5.47;;
23608;SDS011;11982;50.810;4.442;2023-02-01T04:14:07;39.42;;;5.53;;
23608;SDS011;11982;50.810;4.442;2023-02-01T04:16:33;43.30;;;5.53;;
23608;SDS011;11982;50.810;4.442;2023-02-01T04:18:59;39.80;;;5.25;;
23608;SDS011;11982;50.810;4.442;2023-02-01T04:21:25;30.15;;;5.72;;
23608;SDS011;11982;50.810;4.442;2023-02-01T04:23:51;29.85;;;5.07;;
23608;SDS011;11982;50.810;4.442;2023-02-01T04:26:17;35.67;;;5.72;;
23608;SDS011;11982;50.810;4.442;2023-02-01T04:28:44;31.08;;;4.70;;
23608;SDS011;11982;50.810;4.442;2023-02-01T04:31:12;33.50;;;4.88;;
23608;SDS011;11982;50.810;4.442;2023-02-01T04:33:39;32.80;;;5.15;;
23608;SDS011;11982;50.810;4.442;2023-02-01T04:36:04;31.08;;;5.65;;
23608;SDS011;11982;50.810;4.442;2023-02-01T04:38:30;38.30;;;5.50;;
23608;SDS011;11982;50.810;4.442;2023-02-01T04:40:57;26.13;;;5.32;;
23608;SDS011;11982;50.810;4.442;2023-02-01T04:43:23;38.75;;;5.38;;
23608;SDS011;11982;50.810;4.442;2023-02-01T04:45:49;32.63;;;5.88;;
23608;SDS011;11982;50.810;4.442;2023-02-01T04:48:16;33.55;;;4.88;;
23608;SDS011;11982;50.810;4.442;2023-02-01T04:50:43;32.85;;;4.95;;
23608;SDS011;11982;50.810;4.442;2023-02-01T04:53:12;33.58;;;5.25;;
23608;SDS011;11982;50.810;4.442;2023-02-01T04:55:41;26.90;;;4.70;;
23608;SDS011;11982;50.810;4.442;2023-02-01T04:58:07;43.72;;;6.63;;
23608;SDS011;11982;50.810;4.442;2023-02-01T05:00:33;35.03;;;5.50;;
23608;SDS011;11982;50.810;4.442;2023-02-01T05:02:59;34.55;;;5.40;;
23608;SDS011;11982;50.810;4.442;2023-02-01T05:05:25;36.90;;;5.47;;
23608;SDS011;11982;50.810;4.442;2023-02-01T05:07:51;30.88;;;5.00;;
23608;SDS011;11982;50.810;4.442;2023-02-01T05:10:17;37.17;;;4.88;;
23608;SDS011;11982;50.810;4.442;2023-02-01T05:12:43;33.10;;;5.10;;
23608;SDS011;11982;50.810;4.442;2023-02-01T05:15:28;36.15;;;6.00;;
23608;SDS011;11982;50.810;4.442;2023-02-01T05:17:54;33.42;;;4.97;;
23608;SDS011;11982;50.810;4.442;2023-02-01T05:20:20;27.15;;;5.43;;
23608;SDS011;11982;50.810;4.442;2023-02-01T05:22:45;33.90;;;4.68;;
23608;SDS011;11982;50.810;4.442;2023-02-01T05:25:11;42.08;;;5.60;;
23608;SDS011;11982;50.810;4.442;2023-02-01T05:27:37;20.75;;;3.75;;
23608;SDS011;11982;50.810;4.442;2023-02-01T05:30:05;43.08;;;5.75;;
23608;SDS011;11982;50.810;4.442;2023-02-01T05:32:33;33.55;;;5.50;;
23608;SDS011;11982;50.810;4.442;2023-02-01T05:34:58;26.95;;;4.13;;
23608;SDS011;11982;50.810;4.442;2023-02-01T05:37:24;33.53;;;5.60;;
23608;SDS011;11982;50.810;4.442;2023-02-01T05:39:50;44.03;;;5.97;;
23608;SDS011;11982;50.810;4.442;2023-02-01T05:42:16;34.17;;;5.28;;
23608;SDS011;11982;50.810;4.442;2023-02-01T05:44:41;30.60;;;5.10;;
23608;SDS011;11982;50.810;4.442;2023-02-01T05:47:07;30.38;;;5.53;;
23608;SDS011;11982;50.810;4.442;2023-02-01T05:49:33;40.38;;;5.72;;
23608;SDS011;11982;50.810;4.442;2023-02-01T05:51:58;34.70;;;5.18;;
23608;SDS011;11982;50.810;4.442;2023-02-01T05:54:24;24.42;;;4.72;;
23608;SDS011;11982;50.810;4.442;2023-02-01T05:56:50;36.33;;;4.78;;
23608;SDS011;11982;50.810;4.442;2023-02-01T05:59:15;29.20;;;5.32;;
23608;SDS011;11982;50.810;4.442;2023-02-01T06:01:41;39.40;;;5.97;;
23608;SDS011;11982;50.810;4.442;2023-02-01T06:04:07;37.38;;;4.93;;
23608;SDS011;11982;50.810;4.442;2023-02-01T06:06:33;36.25;;;6.40;;
23608;SDS011;11982;50.810;4.442;2023-02-01T06:08:59;37.13;;;5.38;;
23608;SDS011;11982;50.810;4.442;2023-02-01T06:11:25;28.65;;;4.88;;
23608;SDS011;11982;50.810;4.442;2023-02-01T06:13:52;49.42;;;5.82;;
23608;SDS011;11982;50.810;4.442;2023-02-01T06:16:18;27.40;;;4.72;;
23608;SDS011;11982;50.810;4.442;2023-02-01T06:18:44;42.15;;;5.13;;
23608;SDS011;11982;50.810;4.442;2023-02-01T06:21:10;30.58;;;4.90;;
23608;SDS011;11982;50.810;4.442;2023-02-01T06:23:35;27.02;;;5.20;;
23608;SDS011;11982;50.810;4.442;2023-02-01T06:26:05;37.78;;;4.97;;
23608;SDS011;11982;50.810;4.442;2023-02-01T06:28:33;32.00;;;6.00;;
23608;SDS011;11982;50.810;4.442;2023-02-01T06:31:03;28.55;;;5.32;;
23608;SDS011;11982;50.810;4.442;2023-02-01T06:33:35;28.98;;;4.55;;
23608;SDS011;11982;50.810;4.442;2023-02-01T06:36:03;36.70;;;5.60;;
23608;SDS011;11982;50.810;4.442;2023-02-01T06:38:31;35.88;;;5.13;;
23608;SDS011;11982;50.810;4.442;2023-02-01T06:40:59;35.92;;;5.50;;
23608;SDS011;11982;50.810;4.442;2023-02-01T06:43:26;43.40;;;6.18;;
23608;SDS011;11982;50.810;4.442;2023-02-01T06:45:52;40.28;;;5.55;;
23608;SDS011;11982;50.810;4.442;2023-02-01T06:48:23;38.88;;;5.53;;
23608;SDS011;11982;50.810;4.442;2023-02-01T06:50:49;27.70;;;4.85;;
23608;SDS011;11982;50.810;4.442;2023-02-01T06:53:15;31.50;;;5.80;;
23608;SDS011;11982;50.810;4.442;2023-02-01T06:55:40;45.90;;;5.13;;
23608;SDS011;11982;50.810;4.442;2023-02-01T06:58:15;32.17;;;4.63;;
23608;SDS011;11982;50.810;4.442;2023-02-01T07:00:41;33.45;;;4.93;;
23608;SDS011;11982;50.810;4.442;2023-02-01T07:03:07;45.92;;;5.60;;
23608;SDS011;11982;50.810;4.442;2023-02-01T07:05:32;25.67;;;4.28;;
23608;SDS011;11982;50.810;4.442;2023-02-01T07:07:58;30.20;;;5.40;;
23608;SDS011;11982;50.810;4.442;2023-02-01T07:10:23;35.50;;;5.38;;
23608;SDS011;11982;50.810;4.442;2023-02-01T07:12:49;40.60;;;5.93;;
23608;SDS011;11982;50.810;4.442;2023-02-01T07:15:15;31.95;;;5.50;;
23608;SDS011;11982;50.810;4.442;2023-02-01T07:17:40;41.67;;;7.35;;
23608;SDS011;11982;50.810;4.442;2023-02-01T07:20:06;32.40;;;5.00;;
23608;SDS011;11982;50.810;4.442;2023-02-01T07:22:33;38.53;;;5.85;;
23608;SDS011;11982;50.810;4.442;2023-02-01T07:24:58;30.42;;;5.35;;
23608;SDS011;11982;50.810;4.442;2023-02-01T07:27:24;36.08;;;6.32;;
23608;SDS011;11982;50.810;4.442;2023-02-01T07:29:50;36.00;;;5.70;;
23608;SDS011;11982;50.810;4.442;2023-02-01T07:32:16;34.45;;;5.68;;
23608;SDS011;11982;50.810;4.442;2023-02-01T07:34:43;21.58;;;3.95;;
23608;SDS011;11982;50.810;4.442;2023-02-01T07:37:09;36.60;;;5.93;;
23608;SDS011;11982;50.810;4.442;2023-02-01T07:39:35;44.92;;;5.32;;
23608;SDS011;11982;50.810;4.442;2023-02-01T07:42:01;32.20;;;5.18;;
23608;SDS011;11982;50.810;4.442;2023-02-01T07:44:26;45.60;;;6.85;;
23608;SDS011;11982;50.810;4.442;2023-02-01T07:46:52;44.60;;;6.20;;
23608;SDS011;11982;50.810;4.442;2023-02-01T07:49:18;49.10;;;5.32;;
23608;SDS011;11982;50.810;4.442;2023-02-01T07:51:43;28.83;;;4.85;;
23608;SDS011;11982;50.810;4.442;2023-02-01T07:54:09;39.83;;;6.15;;
23608;SDS011;11982;50.810;4.442;2023-02-01T07:56:35;39.13;;;5.78;;
23608;SDS011;11982;50.810;4.442;2023-02-01T07:59:00;34.17;;;5.65;;
23608;SDS011;11982;50.810;4.442;2023-02-01T08:01:27;42.72;;;6.82;;
23608;SDS011;11982;50.810;4.442;2023-02-01T08:06:20;42.28;;;5.30;;
23608;SDS011;11982;50.810;4.442;2023-02-01T08:08:50;39.00;;;6.63;;
23608;SDS011;11982;50.810;4.442;2023-02-01T08:11:17;43.70;;;7.55;;
23608;SDS011;11982;50.810;4.442;2023-02-01T08:13:44;32.50;;;5.60;;
23608;SDS011;11982;50.810;4.442;2023-02-01T08:16:11;36.38;;;6.45;;
23608;SDS011;11982;50.810;4.442;2023-02-01T08:18:38;30.13;;;5.28;;
23608;SDS011;11982;50.810;4.442;2023-02-01T08:21:07;35.58;;;5.93;;
23608;SDS011;11982;50.810;4.442;2023-02-01T08:23:47;41.70;;;6.70;;
23608;SDS011;11982;50.810;4.442;2023-02-01T08:26:17;37.20;;;6.15;;
23608;SDS011;11982;50.810;4.442;2023-02-01T08:28:46;43.78;;;7.70;;
23608;SDS011;11982;50.810;4.442;2023-02-01T08:31:17;39.67;;;7.13;;
23608;SDS011;11982;50.810;4.442;2023-02-01T08:33:47;42.13;;;6.40;;
23608;SDS011;11982;50.810;4.442;2023-02-01T08:36:15;32.85;;;6.20;;
23608;SDS011;11982;50.810;4.442;2023-02-01T08:38:40;35.72;;;5.55;;
23608;SDS011;11982;50.810;4.442;2023-02-01T08:41:13;22.75;;;4.60;;
23608;SDS011;11982;50.810;4.442;2023-02-01T08:43:42;33.88;;;6.20;;
23608;SDS011;11982;50.810;4.442;2023-02-01T08:46:08;38.45;;;5.82;;
23608;SDS011;11982;50.810;4.442;2023-02-01T08:48:35;43.28;;;5.50;;
23608;SDS011;11982;50.810;4.442;2023-02-01T08:51:05;35.05;;;5.95;;
23608;SDS011;11982;50.810;4.442;2023-02-01T08:53:34;42.97;;;5.68;;
23608;SDS011;11982;50.810;4.442;2023-02-01T08:56:01;36.30;;;5.95;;
23608;SDS011;11982;50.810;4.442;2023-02-01T08:58:27;35.38;;;7.00;;
23608;SDS011;11982;50.810;4.442;2023-02-01T09:00:53;44.90;;;6.35;;
23608;SDS011;11982;50.810;4.442;2023-02-01T09:03:18;46.85;;;7.25;;
23608;SDS011;11982;50.810;4.442;2023-02-01T09:05:44;34.38;;;6.00;;
23608;SDS011;11982;50.810;4.442;2023-02-01T09:08:10;37.83;;;6.63;;
23608;SDS011;11982;50.810;4.442;2023-02-01T09:10:39;38.70;;;5.82;;
23608;SDS011;11982;50.810;4.442;2023-02-01T09:13:06;32.33;;;5.65;;
23608;SDS011;11982;50.810;4.442;2023-02-01T09:15:32;37.53;;;6.28;;
23608;SDS011;11982;50.810;4.442;2023-02-01T09:17:58;33.85;;;5.80;;
23608;SDS011;11982;50.810;4.442;2023-02-01T09:20:24;28.88;;;5.20;;
23608;SDS011;11982;50.810;4.442;2023-02-01T09:22:56;36.75;;;5.57;;
23608;SDS011;11982;50.810;4.442;2023-02-01T09:25:21;33.55;;;5.47;;
23608;SDS011;11982;50.810;4.442;2023-02-01T09:27:47;44.08;;;7.00;;
23608;SDS011;11982;50.810;4.442;2023-02-01T09:30:13;34.45;;;5.68;;
23608;SDS011;11982;50.810;4.442;2023-02-01T09:32:38;34.95;;;6.60;;
23608;SDS011;11982;50.810;4.442;2023-02-01T09:35:04;40.28;;;5.93;;
23608;SDS011;11982;50.810;4.442;2023-02-01T09:37:30;41.00;;;6.72;;
23608;SDS011;11982;50.810;4.442;2023-02-01T09:39:56;34.35;;;6.30;;
23608;SDS011;11982;50.810;4.442;2023-02-01T09:42:36;42.55;;;5.88;;
23608;SDS011;11982;50.810;4.442;2023-02-01T09:45:13;28.42;;;5.28;;
23608;SDS011;11982;50.810;4.442;2023-02-01T09:47:46;35.13;;;5.80;;
23608;SDS011;11982;50.810;4.442;2023-02-01T09:50:21;32.00;;;6.25;;
23608;SDS011;11982;50.810;4.442;2023-02-01T09:52:58;39.67;;;6.18;;
23608;SDS011;11982;50.810;4.442;2023-02-01T09:55:32;44.80;;;6.50;;
23608;SDS011;11982;50.810;4.442;2023-02-01T10:01:21;39.42;;;5.80;;
23608;SDS011;11982;50.810;4.442;2023-02-01T10:03:49;31.92;;;5.30;;
23608;SDS011;11982;50.810;4.442;2023-02-01T10:06:26;23.17;;;3.58;;
23608;SDS011;11982;50.810;4.442;2023-02-01T10:09:52;26.63;;;5.03;;
23608;SDS011;11982;50.810;4.442;2023-02-01T10:12:04;36.25;;;5.88;;
23608;SDS011;11982;50.810;4.442;2023-02-01T10:25:53;33.90;;;6.10;;
23608;SDS011;11982;50.810;4.442;2023-02-01T10:28:21;29.40;;;4.90;;
23608;SDS011;11982;50.810;4.442;2023-02-01T10:30:49;28.55;;;5.25;;
23608;SDS011;11982;50.810;4.442;2023-02-01T10:36:02;29.70;;;5.43;;
23608;SDS011;11982;50.810;4.442;2023-02-01T10:38:49;31.65;;;4.93;;
23608;SDS011;11982;50.810;4.442;2023-02-01T10:41:15;28.00;;;4.95;;
23608;SDS011;11982;50.810;4.442;2023-02-01T10:43:44;27.17;;;4.25;;
23608;SDS011;11982;50.810;4.442;2023-02-01T10:46:15;24.80;;;3.63;;
23608;SDS011;11982;50.810;4.442;2023-02-01T10:48:42;27.33;;;4.18;;
23608;SDS011;11982;50.810;4.442;2023-02-01T10:54:03;19.45;;;3.45;;
23608;SDS011;11982;50.810;4.442;2023-02-01T10:56:41;28.48;;;4.07;;
23608;SDS011;11982;50.810;4.442;2023-02-01T10:59:18;23.35;;;3.80;;
23608;SDS011;11982;50.810;4.442;2023-02-01T11:01:45;29.52;;;3.63;;
23608;SDS011;11982;50.810;4.442;2023-02-01T11:04:16;19.17;;;3.50;;
23608;SDS011;11982;50.810;4.442;2023-02-01T11:06:48;24.25;;;4.03;;
23608;SDS011;11982;50.810;4.442;2023-02-01T11:09:21;26.15;;;3.80;;
23608;SDS011;11982;50.810;4.442;2023-02-01T11:16:58;24.95;;;3.90;;
23608;SDS011;11982;50.810;4.442;2023-02-01T11:19:25;22.73;;;4.07;;
23608;SDS011;11982;50.810;4.442;2023-02-01T11:21:52;24.30;;;3.88;;
23608;SDS011;11982;50.810;4.442;2023-02-01T11:26:49;24.05;;;3.97;;
23608;SDS011;11982;50.810;4.442;2023-02-01T11:29:18;24.08;;;4.25;;
23608;SDS011;11982;50.810;4.442;2023-02-01T11:31:49;21.45;;;3.38;;
23608;SDS011;11982;50.810;4.442;2023-02-01T11:34:16;23.02;;;3.97;;
23608;SDS011;11982;50.810;4.442;2023-02-01T11:36:45;18.20;;;3.53;;
23608;SDS011;11982;50.810;4.442;2023-02-01T11:42:00;16.88;;;3.13;;
23608;SDS011;11982;50.810;4.442;2023-02-01T11:44:50;23.25;;;3.40;;
23608;SDS011;11982;50.810;4.442;2023-02-01T11:47:23;21.63;;;3.97;;
23608;SDS011;11982;50.810;4.442;2023-02-01T11:49:57;23.08;;;3.17;;
23608;SDS011;11982;50.810;4.442;2023-02-01T12:06:46;23.65;;;3.40;;
23608;SDS011;11982;50.810;4.442;2023-02-01T12:15:08;18.75;;;3.40;;
23608;SDS011;11982;50.810;4.442;2023-02-01T12:18:04;24.73;;;4.78;;
23608;SDS011;11982;50.810;4.442;2023-02-01T12:43:17;16.10;;;2.83;;
23608;SDS011;11982;50.810;4.442;2023-02-01T12:45:55;18.38;;;2.20;;
23608;SDS011;11982;50.810;4.442;2023-02-01T12:51:19;10.60;;;2.75;;
23608;SDS011;11982;50.810;4.442;2023-02-01T12:54:06;13.32;;;2.35;;
23608;SDS011;11982;50.810;4.442;2023-02-01T12:56:46;14.98;;;2.58;;
23608;SDS011;11982;50.810;4.442;2023-02-01T12:59:24;12.68;;;2.38;;
23608;SDS011;11982;50.810;4.442;2023-02-01T13:02:01;15.13;;;2.70;;
23608;SDS011;11982;50.810;4.442;2023-02-01T13:05:05;10.00;;;2.15;;
23608;SDS011;11982;50.810;4.442;2023-02-01T13:07:42;11.45;;;2.35;;
23608;SDS011;11982;50.810;4.442;2023-02-01T13:15:43;19.90;;;2.45;;
23608;SDS011;11982;50.810;4.442;2023-02-01T13:18:18;10.25;;;2.25;;
23608;SDS011;11982;50.810;4.442;2023-02-01T13:23:26;13.90;;;2.50;;
23608;SDS011;11982;50.810;4.442;2023-02-01T13:25:55;11.35;;;2.13;;
23608;SDS011;11982;50.810;4.442;2023-02-01T13:28:40;10.57;;;2.22;;
23608;SDS011;11982;50.810;4.442;2023-02-01T13:31:40;12.30;;;1.90;;
23608;SDS011;11982;50.810;4.442;2023-02-01T13:45:42;17.02;;;2.70;;
23608;SDS011;11982;50.810;4.442;2023-02-01T13:48:18;12.90;;;2.30;;
23608;SDS011;11982;50.810;4.442;2023-02-01T13:50:54;12.18;;;2.30;;
23608;SDS011;11982;50.810;4.442;2023-02-01T13:53:32;18.70;;;2.75;;
23608;SDS011;11982;50.810;4.442;2023-02-01T13:58:40;12.40;;;2.15;;
23608;SDS011;11982;50.810;4.442;2023-02-01T14:06:58;24.33;;;3.55;;
23608;SDS011;11982;50.810;4.442;2023-02-01T14:09:31;14.43;;;2.95;;
23608;SDS011;11982;50.810;4.442;2023-02-01T14:12:05;15.10;;;2.65;;
23608;SDS011;11982;50.810;4.442;2023-02-01T14:15:22;17.45;;;3.00;;
23608;SDS011;11982;50.810;4.442;2023-02-01T14:17:52;11.15;;;2.22;;
23608;SDS011;11982;50.810;4.442;2023-02-01T14:23:12;14.77;;;2.85;;
23608;SDS011;11982;50.810;4.442;2023-02-01T14:25:40;9.00;;;2.15;;
23608;SDS011;11982;50.810;4.442;2023-02-01T14:28:10;16.75;;;2.75;;
23608;SDS011;11982;50.810;4.442;2023-02-01T14:30:56;20.33;;;3.20;;
23608;SDS011;11982;50.810;4.442;2023-02-01T14:33:24;15.63;;;2.65;;
23608;SDS011;11982;50.810;4.442;2023-02-01T14:36:11;16.33;;;2.60;;
23608;SDS011;11982;50.810;4.442;2023-02-01T14:38:38;15.95;;;2.88;;
23608;SDS011;11982;50.810;4.442;2023-02-01T14:41:15;13.38;;;2.60;;
23608;SDS011;11982;50.810;4.442;2023-02-01T14:44:36;24.10;;;3.20;;
23608;SDS011;11982;50.810;4.442;2023-02-01T14:49:33;16.33;;;3.10;;
23608;SDS011;11982;50.810;4.442;2023-02-01T14:52:13;21.20;;;2.97;;
23608;SDS011;11982;50.810;4.442;2023-02-01T14:54:49;16.27;;;2.67;;
23608;SDS011;11982;50.810;4.442;2023-02-01T14:57:19;19.75;;;3.88;;
23608;SDS011;11982;50.810;4.442;2023-02-01T14:59:48;15.55;;;2.65;;
23608;SDS011;11982;50.810;4.442;2023-02-01T15:02:21;17.73;;;2.53;;
23608;SDS011;11982;50.810;4.442;2023-02-01T15:04:53;16.25;;;2.70;;
23608;SDS011;11982;50.810;4.442;2023-02-01T15:07:20;21.95;;;3.15;;
23608;SDS011;11982;50.810;4.442;2023-02-01T15:09:49;17.60;;;2.80;;
23608;SDS011;11982;50.810;4.442;2023-02-01T15:12:17;15.63;;;2.88;;
23608;SDS011;11982;50.810;4.442;2023-02-01T15:15:11;18.10;;;3.10;;
23608;SDS011;11982;50.810;4.442;2023-02-01T15:17:52;18.08;;;3.10;;
23608;SDS011;11982;50.810;4.442;2023-02-01T15:22:55;19.13;;;3.00;;
23608;SDS011;11982;50.810;4.442;2023-02-01T15:25:32;19.83;;;3.00;;
23608;SDS011;11982;50.810;4.442;2023-02-01T15:28:00;23.55;;;3.40;;
23608;SDS011;11982;50.810;4.442;2023-02-01T15:30:28;15.15;;;2.75;;
23608;SDS011;11982;50.810;4.442;2023-02-01T15:36:17;22.55;;;3.38;;
23608;SDS011;11982;50.810;4.442;2023-02-01T15:38:43;20.58;;;3.45;;
23608;SDS011;11982;50.810;4.442;2023-02-01T15:41:16;22.20;;;4.05;;
23608;SDS011;11982;50.810;4.442;2023-02-01T15:46:35;16.52;;;3.28;;
23608;SDS011;11982;50.810;4.442;2023-02-01T15:49:03;17.55;;;3.05;;
23608;SDS011;11982;50.810;4.442;2023-02-01T15:51:39;20.08;;;3.30;;
23608;SDS011;11982;50.810;4.442;2023-02-01T15:54:19;30.33;;;4.07;;
23608;SDS011;11982;50.810;4.442;2023-02-01T15:56:50;17.45;;;3.38;;
23608;SDS011;11982;50.810;4.442;2023-02-01T15:59:22;27.02;;;3.53;;
23608;SDS011;11982;50.810;4.442;2023-02-01T16:02:02;16.13;;;2.38;;
23608;SDS011;11982;50.810;4.442;2023-02-01T16:04:28;16.38;;;3.47;;
23608;SDS011;11982;50.810;4.442;2023-02-01T16:07:02;26.08;;;5.20;;
23608;SDS011;11982;50.810;4.442;2023-02-01T16:09:48;17.05;;;3.55;;
23608;SDS011;11982;50.810;4.442;2023-02-01T16:12:32;25.55;;;4.03;;
23608;SDS011;11982;50.810;4.442;2023-02-01T16:15:03;24.02;;;3.85;;
23608;SDS011;11982;50.810;4.442;2023-02-01T16:17:29;23.95;;;3.58;;
23608;SDS011;11982;50.810;4.442;2023-02-01T16:19:56;25.15;;;3.30;;
23608;SDS011;11982;50.810;4.442;2023-02-01T16:22:23;23.58;;;4.00;;
23608;SDS011;11982;50.810;4.442;2023-02-01T16:24:48;25.88;;;4.00;;
23608;SDS011;11982;50.810;4.442;2023-02-01T16:27:14;19.65;;;3.50;;
23608;SDS011;11982;50.810;4.442;2023-02-01T16:29:40;24.73;;;4.38;;
23608;SDS011;11982;50.810;4.442;2023-02-01T16:32:06;22.00;;;4.10;;
23608;SDS011;11982;50.810;4.442;2023-02-01T16:34:52;27.33;;;4.18;;
23608;SDS011;11982;50.810;4.442;2023-02-01T16:37:22;19.45;;;3.80;;
23608;SDS011;11982;50.810;4.442;2023-02-01T16:39:49;19.50;;;3.40;;
23608;SDS011;11982;50.810;4.442;2023-02-01T16:42:15;31.05;;;4.50;;
23608;SDS011;11982;50.810;4.442;2023-02-01T16:44:41;24.15;;;3.97;;
23608;SDS011;11982;50.810;4.442;2023-02-01T16:47:15;18.80;;;2.72;;
23608;SDS011;11982;50.810;4.442;2023-02-01T16:49:46;11.55;;;2.58;;
23608;SDS011;11982;50.810;4.442;2023-02-01T16:52:19;28.77;;;4.45;;
23608;SDS011;11982;50.810;4.442;2023-02-01T16:54:47;25.15;;;4.90;;
23608;SDS011;11982;50.810;4.442;2023-02-01T16:57:13;28.75;;;4.28;;
23608;SDS011;11982;50.810;4.442;2023-02-01T16:59:41;17.30;;;3.35;;
23608;SDS011;11982;50.810;4.442;2023-02-01T17:02:15;32.15;;;4.68;;
23608;SDS011;11982;50.810;4.442;2023-02-01T17:04:46;30.25;;;4.13;;
23608;SDS011;11982;50.810;4.442;2023-02-01T17:07:17;30.30;;;5.53;;
23608;SDS011;11982;50.810;4.442;2023-02-01T17:09:44;31.55;;;4.60;;
23608;SDS011;11982;50.810;4.442;2023-02-01T17:12:27;29.73;;;5.00;;
23608;SDS011;11982;50.810;4.442;2023-02-01T17:14:58;23.48;;;4.10;;
23608;SDS011;11982;50.810;4.442;2023-02-01T17:17:30;21.38;;;4.13;;
23608;SDS011;11982;50.810;4.442;2023-02-01T17:20:00;21.75;;;3.88;;
23608;SDS011;11982;50.810;4.442;2023-02-01T17:22:26;16.88;;;4.13;;
23608;SDS011;11982;50.810;4.442;2023-02-01T17:24:52;22.10;;;4.00;;
23608;SDS011;11982;50.810;4.442;2023-02-01T17:27:18;24.60;;;5.10;;
23608;SDS011;11982;50.810;4.442;2023-02-01T17:29:43;24.10;;;4.22;;
23608;SDS011;11982;50.810;4.442;2023-02-01T17:32:18;23.45;;;4.43;;